Terminal Aerodrome Forecast
Issued by NWS

Home | Current Version | Previous Version | Text Only | Print | Product List | Glossary Off
Versions: 1 2 3 4 5 6 7 8 9 10 11 12 13 14 15

000
FTUS43 KFGF 042100 AAA
TAFBJI
TAF AMD
KBJI 042155Z 0422/0518 29013KT P6SM FEW020
      TEMPO 0422/0424 BKN020
     FM050000 29006KT P6SM SKC=

USA.gov is the U.S. government's official web portal to all federal, state and local government web resources and services.